sensor_id;sensor_type;location;lat;lon;timestamp;P1;durP1;ratioP1;P2;durP2;ratioP2
19944;SDS011;10134;50.952;6.930;2022-07-23T00:00:29;16.42;;;12.75;;
19944;SDS011;10134;50.952;6.930;2022-07-23T00:03:05;18.30;;;11.85;;
19944;SDS011;10134;50.952;6.930;2022-07-23T00:05:32;14.82;;;11.32;;
19944;SDS011;10134;50.952;6.930;2022-07-23T00:08:02;17.58;;;11.35;;
19944;SDS011;10134;50.952;6.930;2022-07-23T00:10:32;15.57;;;12.23;;
19944;SDS011;10134;50.952;6.930;2022-07-23T00:12:59;13.75;;;10.98;;
19944;SDS011;10134;50.952;6.930;2022-07-23T00:15:27;18.08;;;12.05;;
19944;SDS011;10134;50.952;6.930;2022-07-23T00:17:54;19.35;;;12.60;;
19944;SDS011;10134;50.952;6.930;2022-07-23T00:20:21;21.83;;;14.57;;
19944;SDS011;10134;50.952;6.930;2022-07-23T00:22:49;21.45;;;13.63;;
19944;SDS011;10134;50.952;6.930;2022-07-23T00:25:19;22.45;;;13.98;;
19944;SDS011;10134;50.952;6.930;2022-07-23T00:27:57;22.90;;;14.00;;
19944;SDS011;10134;50.952;6.930;2022-07-23T00:30:26;19.90;;;13.77;;
19944;SDS011;10134;50.952;6.930;2022-07-23T00:32:55;19.27;;;12.65;;
19944;SDS011;10134;50.952;6.930;2022-07-23T00:35:24;20.02;;;12.27;;
19944;SDS011;10134;50.952;6.930;2022-07-23T00:37:54;17.85;;;11.98;;
19944;SDS011;10134;50.952;6.930;2022-07-23T00:40:22;17.70;;;12.10;;
19944;SDS011;10134;50.952;6.930;2022-07-23T00:42:52;17.05;;;10.50;;
19944;SDS011;10134;50.952;6.930;2022-07-23T00:45:20;16.10;;;11.25;;
19944;SDS011;10134;50.952;6.930;2022-07-23T00:47:47;14.88;;;10.48;;
19944;SDS011;10134;50.952;6.930;2022-07-23T00:50:15;13.73;;;9.25;;
19944;SDS011;10134;50.952;6.930;2022-07-23T00:52:42;16.58;;;10.43;;
19944;SDS011;10134;50.952;6.930;2022-07-23T00:55:10;15.18;;;10.85;;
19944;SDS011;10134;50.952;6.930;2022-07-23T00:57:39;17.00;;;11.88;;
19944;SDS011;10134;50.952;6.930;2022-07-23T01:00:08;23.23;;;13.95;;
19944;SDS011;10134;50.952;6.930;2022-07-23T01:02:38;16.30;;;12.05;;
19944;SDS011;10134;50.952;6.930;2022-07-23T01:05:06;17.20;;;11.52;;
19944;SDS011;10134;50.952;6.930;2022-07-23T01:07:35;17.65;;;12.25;;
19944;SDS011;10134;50.952;6.930;2022-07-23T01:10:03;16.27;;;11.85;;
19944;SDS011;10134;50.952;6.930;2022-07-23T01:12:32;15.88;;;11.77;;
19944;SDS011;10134;50.952;6.930;2022-07-23T01:14:59;15.88;;;10.85;;
19944;SDS011;10134;50.952;6.930;2022-07-23T01:17:29;14.20;;;10.20;;
19944;SDS011;10134;50.952;6.930;2022-07-23T01:19:56;14.45;;;9.95;;
19944;SDS011;10134;50.952;6.930;2022-07-23T01:22:28;18.67;;;11.30;;
19944;SDS011;10134;50.952;6.930;2022-07-23T01:24:56;13.50;;;10.55;;
19944;SDS011;10134;50.952;6.930;2022-07-23T01:27:25;18.27;;;10.90;;
19944;SDS011;10134;50.952;6.930;2022-07-23T01:29:59;17.73;;;10.70;;
19944;SDS011;10134;50.952;6.930;2022-07-23T01:32:27;16.25;;;10.52;;
19944;SDS011;10134;50.952;6.930;2022-07-23T01:34:55;17.13;;;11.50;;
19944;SDS011;10134;50.952;6.930;2022-07-23T01:37:23;16.05;;;10.75;;
19944;SDS011;10134;50.952;6.930;2022-07-23T01:39:50;13.25;;;10.52;;
19944;SDS011;10134;50.952;6.930;2022-07-23T01:42:17;16.05;;;11.73;;
19944;SDS011;10134;50.952;6.930;2022-07-23T01:44:46;13.82;;;9.65;;
19944;SDS011;10134;50.952;6.930;2022-07-23T01:47:18;15.68;;;9.60;;
19944;SDS011;10134;50.952;6.930;2022-07-23T01:49:47;13.80;;;8.48;;
19944;SDS011;10134;50.952;6.930;2022-07-23T01:52:32;12.38;;;9.50;;
19944;SDS011;10134;50.952;6.930;2022-07-23T01:54:59;12.77;;;8.93;;
19944;SDS011;10134;50.952;6.930;2022-07-23T01:57:26;12.57;;;9.25;;
19944;SDS011;10134;50.952;6.930;2022-07-23T01:59:54;16.60;;;10.25;;
19944;SDS011;10134;50.952;6.930;2022-07-23T02:02:22;13.68;;;9.45;;
19944;SDS011;10134;50.952;6.930;2022-07-23T02:04:49;14.95;;;10.10;;
19944;SDS011;10134;50.952;6.930;2022-07-23T02:07:18;15.80;;;11.02;;
19944;SDS011;10134;50.952;6.930;2022-07-23T02:09:46;13.48;;;10.48;;
19944;SDS011;10134;50.952;6.930;2022-07-23T02:12:13;14.20;;;10.00;;
19944;SDS011;10134;50.952;6.930;2022-07-23T02:14:43;18.25;;;10.85;;
19944;SDS011;10134;50.952;6.930;2022-07-23T02:17:11;18.77;;;10.65;;
19944;SDS011;10134;50.952;6.930;2022-07-23T02:19:38;15.32;;;10.80;;
19944;SDS011;10134;50.952;6.930;2022-07-23T02:22:05;16.17;;;10.38;;
19944;SDS011;10134;50.952;6.930;2022-07-23T02:24:33;18.13;;;11.63;;
19944;SDS011;10134;50.952;6.930;2022-07-23T02:27:00;18.85;;;11.43;;
19944;SDS011;10134;50.952;6.930;2022-07-23T02:29:28;16.02;;;11.93;;
19944;SDS011;10134;50.952;6.930;2022-07-23T02:31:55;16.10;;;11.13;;
19944;SDS011;10134;50.952;6.930;2022-07-23T02:34:22;17.65;;;11.60;;
19944;SDS011;10134;50.952;6.930;2022-07-23T02:36:51;18.00;;;12.35;;
19944;SDS011;10134;50.952;6.930;2022-07-23T02:39:19;15.10;;;11.77;;
19944;SDS011;10134;50.952;6.930;2022-07-23T02:41:48;16.63;;;11.85;;
19944;SDS011;10134;50.952;6.930;2022-07-23T02:44:15;15.80;;;11.35;;
19944;SDS011;10134;50.952;6.930;2022-07-23T02:46:47;15.60;;;12.15;;
19944;SDS011;10134;50.952;6.930;2022-07-23T02:49:14;18.77;;;11.75;;
19944;SDS011;10134;50.952;6.930;2022-07-23T02:51:44;17.73;;;11.90;;
19944;SDS011;10134;50.952;6.930;2022-07-23T02:54:11;20.17;;;13.18;;
19944;SDS011;10134;50.952;6.930;2022-07-23T02:56:38;20.73;;;12.63;;
19944;SDS011;10134;50.952;6.930;2022-07-23T02:59:06;19.65;;;13.02;;
19944;SDS011;10134;50.952;6.930;2022-07-23T03:01:33;16.25;;;12.48;;
19944;SDS011;10134;50.952;6.930;2022-07-23T03:04:01;19.50;;;12.27;;
19944;SDS011;10134;50.952;6.930;2022-07-23T03:06:29;21.13;;;13.43;;
19944;SDS011;10134;50.952;6.930;2022-07-23T03:08:56;23.70;;;13.13;;
19944;SDS011;10134;50.952;6.930;2022-07-23T03:11:24;16.60;;;12.38;;
19944;SDS011;10134;50.952;6.930;2022-07-23T03:13:52;24.73;;;13.82;;
19944;SDS011;10134;50.952;6.930;2022-07-23T03:16:20;20.42;;;12.82;;
19944;SDS011;10134;50.952;6.930;2022-07-23T03:18:49;17.23;;;12.60;;
19944;SDS011;10134;50.952;6.930;2022-07-23T03:21:17;17.60;;;13.18;;
19944;SDS011;10134;50.952;6.930;2022-07-23T03:23:44;18.35;;;12.73;;
19944;SDS011;10134;50.952;6.930;2022-07-23T03:26:12;19.50;;;12.68;;
19944;SDS011;10134;50.952;6.930;2022-07-23T03:28:39;17.77;;;12.10;;
19944;SDS011;10134;50.952;6.930;2022-07-23T03:31:06;19.23;;;12.20;;
19944;SDS011;10134;50.952;6.930;2022-07-23T03:33:34;17.77;;;12.27;;
19944;SDS011;10134;50.952;6.930;2022-07-23T03:36:01;18.45;;;13.27;;
19944;SDS011;10134;50.952;6.930;2022-07-23T03:38:33;21.10;;;13.70;;
19944;SDS011;10134;50.952;6.930;2022-07-23T03:41:00;21.85;;;14.70;;
19944;SDS011;10134;50.952;6.930;2022-07-23T03:43:28;17.98;;;12.10;;
19944;SDS011;10134;50.952;6.930;2022-07-23T03:45:56;21.50;;;13.45;;
19944;SDS011;10134;50.952;6.930;2022-07-23T03:48:23;19.02;;;13.18;;
19944;SDS011;10134;50.952;6.930;2022-07-23T03:50:50;20.67;;;13.43;;
19944;SDS011;10134;50.952;6.930;2022-07-23T03:53:18;21.85;;;14.15;;
19944;SDS011;10134;50.952;6.930;2022-07-23T03:55:46;26.00;;;15.70;;
19944;SDS011;10134;50.952;6.930;2022-07-23T03:58:13;25.10;;;15.73;;
19944;SDS011;10134;50.952;6.930;2022-07-23T04:00:42;27.92;;;16.73;;
19944;SDS011;10134;50.952;6.930;2022-07-23T04:03:10;23.90;;;15.40;;
19944;SDS011;10134;50.952;6.930;2022-07-23T04:05:37;25.27;;;15.32;;
19944;SDS011;10134;50.952;6.930;2022-07-23T04:08:06;22.88;;;15.35;;
19944;SDS011;10134;50.952;6.930;2022-07-23T04:10:38;20.15;;;14.05;;
19944;SDS011;10134;50.952;6.930;2022-07-23T04:13:06;25.40;;;16.15;;
19944;SDS011;10134;50.952;6.930;2022-07-23T04:15:34;21.77;;;15.27;;
19944;SDS011;10134;50.952;6.930;2022-07-23T04:18:01;24.52;;;14.82;;
19944;SDS011;10134;50.952;6.930;2022-07-23T04:20:38;21.60;;;15.43;;
19944;SDS011;10134;50.952;6.930;2022-07-23T04:23:08;19.33;;;14.23;;
19944;SDS011;10134;50.952;6.930;2022-07-23T04:25:40;22.83;;;16.15;;
19944;SDS011;10134;50.952;6.930;2022-07-23T04:28:07;21.45;;;15.23;;
19944;SDS011;10134;50.952;6.930;2022-07-23T04:30:35;25.77;;;16.23;;
19944;SDS011;10134;50.952;6.930;2022-07-23T04:33:03;28.95;;;18.23;;
19944;SDS011;10134;50.952;6.930;2022-07-23T04:35:35;24.98;;;15.82;;
19944;SDS011;10134;50.952;6.930;2022-07-23T04:38:12;25.55;;;16.85;;
19944;SDS011;10134;50.952;6.930;2022-07-23T04:40:40;23.75;;;15.43;;
19944;SDS011;10134;50.952;6.930;2022-07-23T04:43:07;24.27;;;15.70;;
19944;SDS011;10134;50.952;6.930;2022-07-23T04:45:40;20.05;;;14.18;;
19944;SDS011;10134;50.952;6.930;2022-07-23T04:48:09;24.40;;;16.88;;
19944;SDS011;10134;50.952;6.930;2022-07-23T04:50:37;29.77;;;17.65;;
19944;SDS011;10134;50.952;6.930;2022-07-23T04:53:14;27.33;;;17.08;;
19944;SDS011;10134;50.952;6.930;2022-07-23T04:55:42;23.48;;;15.27;;
19944;SDS011;10134;50.952;6.930;2022-07-23T04:58:09;32.47;;;17.52;;
19944;SDS011;10134;50.952;6.930;2022-07-23T05:00:36;29.15;;;17.92;;
19944;SDS011;10134;50.952;6.930;2022-07-23T05:03:04;27.60;;;15.93;;
19944;SDS011;10134;50.952;6.930;2022-07-23T05:05:32;27.45;;;17.73;;
19944;SDS011;10134;50.952;6.930;2022-07-23T05:08:07;25.85;;;16.70;;
19944;SDS011;10134;50.952;6.930;2022-07-23T05:10:37;24.90;;;16.20;;
19944;SDS011;10134;50.952;6.930;2022-07-23T05:13:05;28.63;;;16.98;;
19944;SDS011;10134;50.952;6.930;2022-07-23T05:15:32;28.02;;;17.30;;
19944;SDS011;10134;50.952;6.930;2022-07-23T05:18:01;29.27;;;17.13;;
19944;SDS011;10134;50.952;6.930;2022-07-23T05:20:28;26.58;;;16.80;;
19944;SDS011;10134;50.952;6.930;2022-07-23T05:22:56;23.23;;;15.57;;
19944;SDS011;10134;50.952;6.930;2022-07-23T05:25:23;25.25;;;16.00;;
19944;SDS011;10134;50.952;6.930;2022-07-23T05:27:50;26.73;;;15.40;;
19944;SDS011;10134;50.952;6.930;2022-07-23T05:30:18;28.58;;;15.20;;
19944;SDS011;10134;50.952;6.930;2022-07-23T05:32:47;24.83;;;16.45;;
19944;SDS011;10134;50.952;6.930;2022-07-23T05:35:17;26.10;;;15.88;;
19944;SDS011;10134;50.952;6.930;2022-07-23T05:37:57;25.13;;;15.80;;
19944;SDS011;10134;50.952;6.930;2022-07-23T05:40:24;28.90;;;17.27;;
19944;SDS011;10134;50.952;6.930;2022-07-23T05:42:51;22.27;;;15.30;;
19944;SDS011;10134;50.952;6.930;2022-07-23T05:45:19;23.92;;;15.32;;
19944;SDS011;10134;50.952;6.930;2022-07-23T05:47:47;28.77;;;17.55;;
19944;SDS011;10134;50.952;6.930;2022-07-23T05:50:24;24.27;;;15.57;;
19944;SDS011;10134;50.952;6.930;2022-07-23T05:52:57;23.00;;;15.35;;
19944;SDS011;10134;50.952;6.930;2022-07-23T05:55:36;28.83;;;17.10;;
19944;SDS011;10134;50.952;6.930;2022-07-23T05:58:04;27.52;;;16.60;;
19944;SDS011;10134;50.952;6.930;2022-07-23T06:00:31;23.55;;;16.15;;
19944;SDS011;10134;50.952;6.930;2022-07-23T06:02:58;29.05;;;15.75;;
19944;SDS011;10134;50.952;6.930;2022-07-23T06:05:28;22.40;;;15.02;;
19944;SDS011;10134;50.952;6.930;2022-07-23T06:07:57;26.50;;;15.35;;
19944;SDS011;10134;50.952;6.930;2022-07-23T06:10:25;24.70;;;14.18;;
19944;SDS011;10134;50.952;6.930;2022-07-23T06:12:53;25.33;;;13.75;;
19944;SDS011;10134;50.952;6.930;2022-07-23T06:15:27;22.13;;;14.35;;
19944;SDS011;10134;50.952;6.930;2022-07-23T06:17:55;19.83;;;13.45;;
19944;SDS011;10134;50.952;6.930;2022-07-23T06:20:23;24.63;;;13.88;;
19944;SDS011;10134;50.952;6.930;2022-07-23T06:22:50;21.92;;;13.77;;
19944;SDS011;10134;50.952;6.930;2022-07-23T06:25:17;21.52;;;13.48;;
19944;SDS011;10134;50.952;6.930;2022-07-23T06:27:47;20.33;;;13.57;;
19944;SDS011;10134;50.952;6.930;2022-07-23T06:30:15;19.60;;;12.65;;
19944;SDS011;10134;50.952;6.930;2022-07-23T06:32:47;23.88;;;13.55;;
19944;SDS011;10134;50.952;6.930;2022-07-23T06:35:18;24.40;;;13.68;;
19944;SDS011;10134;50.952;6.930;2022-07-23T06:37:46;23.15;;;12.48;;
19944;SDS011;10134;50.952;6.930;2022-07-23T06:40:15;22.63;;;13.73;;
19944;SDS011;10134;50.952;6.930;2022-07-23T06:42:42;21.88;;;12.68;;
19944;SDS011;10134;50.952;6.930;2022-07-23T06:45:15;23.05;;;13.00;;
19944;SDS011;10134;50.952;6.930;2022-07-23T06:47:43;21.13;;;11.68;;
19944;SDS011;10134;50.952;6.930;2022-07-23T06:50:10;21.40;;;12.32;;
19944;SDS011;10134;50.952;6.930;2022-07-23T06:52:38;29.77;;;14.90;;
19944;SDS011;10134;50.952;6.930;2022-07-23T06:55:09;20.30;;;13.15;;
19944;SDS011;10134;50.952;6.930;2022-07-23T06:57:37;16.85;;;10.68;;
19944;SDS011;10134;50.952;6.930;2022-07-23T07:00:05;20.23;;;11.07;;
19944;SDS011;10134;50.952;6.930;2022-07-23T07:02:33;17.40;;;10.65;;
19944;SDS011;10134;50.952;6.930;2022-07-23T07:05:01;16.05;;;11.55;;
19944;SDS011;10134;50.952;6.930;2022-07-23T07:07:32;18.88;;;12.30;;
19944;SDS011;10134;50.952;6.930;2022-07-23T07:10:00;17.02;;;11.65;;
19944;SDS011;10134;50.952;6.930;2022-07-23T07:12:29;15.07;;;10.73;;
19944;SDS011;10134;50.952;6.930;2022-07-23T07:14:56;18.98;;;12.27;;
19944;SDS011;10134;50.952;6.930;2022-07-23T07:17:24;16.75;;;10.40;;
19944;SDS011;10134;50.952;6.930;2022-07-23T07:19:51;18.00;;;11.23;;
19944;SDS011;10134;50.952;6.930;2022-07-23T07:22:18;14.70;;;9.93;;
19944;SDS011;10134;50.952;6.930;2022-07-23T07:24:45;21.23;;;12.70;;
19944;SDS011;10134;50.952;6.930;2022-07-23T07:27:13;16.88;;;11.05;;
19944;SDS011;10134;50.952;6.930;2022-07-23T07:29:40;16.45;;;10.38;;
19944;SDS011;10134;50.952;6.930;2022-07-23T07:32:07;13.77;;;9.90;;
19944;SDS011;10134;50.952;6.930;2022-07-23T07:34:34;14.25;;;9.90;;
19944;SDS011;10134;50.952;6.930;2022-07-23T07:37:02;14.60;;;9.25;;
19944;SDS011;10134;50.952;6.930;2022-07-23T07:39:29;12.85;;;8.18;;
19944;SDS011;10134;50.952;6.930;2022-07-23T07:41:56;14.00;;;8.40;;
19944;SDS011;10134;50.952;6.930;2022-07-23T07:44:24;14.80;;;8.30;;
19944;SDS011;10134;50.952;6.930;2022-07-23T07:46:51;13.85;;;8.65;;
19944;SDS011;10134;50.952;6.930;2022-07-23T07:49:19;13.25;;;7.93;;
19944;SDS011;10134;50.952;6.930;2022-07-23T07:51:48;13.10;;;9.13;;
19944;SDS011;10134;50.952;6.930;2022-07-23T07:54:15;13.98;;;8.45;;
19944;SDS011;10134;50.952;6.930;2022-07-23T07:56:42;16.30;;;8.32;;
19944;SDS011;10134;50.952;6.930;2022-07-23T07:59:10;10.10;;;7.30;;
19944;SDS011;10134;50.952;6.930;2022-07-23T08:01:38;16.50;;;8.65;;
19944;SDS011;10134;50.952;6.930;2022-07-23T08:04:05;13.15;;;8.48;;
19944;SDS011;10134;50.952;6.930;2022-07-23T08:06:32;9.88;;;7.20;;
19944;SDS011;10134;50.952;6.930;2022-07-23T08:09:00;16.15;;;9.38;;
19944;SDS011;10134;50.952;6.930;2022-07-23T08:11:27;12.93;;;8.40;;
19944;SDS011;10134;50.952;6.930;2022-07-23T08:13:54;11.10;;;8.63;;
19944;SDS011;10134;50.952;6.930;2022-07-23T08:16:22;10.55;;;8.15;;
19944;SDS011;10134;50.952;6.930;2022-07-23T08:18:49;16.90;;;10.68;;
19944;SDS011;10134;50.952;6.930;2022-07-23T08:21:16;12.82;;;9.85;;
19944;SDS011;10134;50.952;6.930;2022-07-23T08:23:44;13.60;;;8.35;;
19944;SDS011;10134;50.952;6.930;2022-07-23T08:26:11;12.85;;;10.75;;
19944;SDS011;10134;50.952;6.930;2022-07-23T08:28:39;15.80;;;10.70;;
19944;SDS011;10134;50.952;6.930;2022-07-23T08:31:06;15.68;;;10.10;;
19944;SDS011;10134;50.952;6.930;2022-07-23T08:33:33;11.68;;;9.02;;
19944;SDS011;10134;50.952;6.930;2022-07-23T08:36:02;13.77;;;9.75;;
19944;SDS011;10134;50.952;6.930;2022-07-23T08:38:31;12.77;;;10.02;;
19944;SDS011;10134;50.952;6.930;2022-07-23T08:40:59;14.60;;;9.70;;
19944;SDS011;10134;50.952;6.930;2022-07-23T08:43:27;14.25;;;11.80;;
19944;SDS011;10134;50.952;6.930;2022-07-23T08:45:57;14.70;;;11.02;;
19944;SDS011;10134;50.952;6.930;2022-07-23T08:48:29;16.00;;;11.07;;
19944;SDS011;10134;50.952;6.930;2022-07-23T08:50:59;13.68;;;10.65;;
19944;SDS011;10134;50.952;6.930;2022-07-23T08:53:28;14.25;;;10.95;;
19944;SDS011;10134;50.952;6.930;2022-07-23T08:55:58;15.90;;;10.73;;
19944;SDS011;10134;50.952;6.930;2022-07-23T08:58:28;14.98;;;10.95;;
19944;SDS011;10134;50.952;6.930;2022-07-23T09:00:57;15.38;;;11.32;;
19944;SDS011;10134;50.952;6.930;2022-07-23T09:03:27;16.00;;;11.75;;
19944;SDS011;10134;50.952;6.930;2022-07-23T09:05:55;13.23;;;11.70;;
19944;SDS011;10134;50.952;6.930;2022-07-23T09:08:25;14.23;;;10.55;;
19944;SDS011;10134;50.952;6.930;2022-07-23T09:11:01;10.60;;;9.50;;
19944;SDS011;10134;50.952;6.930;2022-07-23T09:13:34;11.43;;;9.70;;
19944;SDS011;10134;50.952;6.930;2022-07-23T09:16:04;13.13;;;11.75;;
19944;SDS011;10134;50.952;6.930;2022-07-23T09:18:50;18.02;;;11.85;;
19944;SDS011;10134;50.952;6.930;2022-07-23T09:23:57;14.20;;;10.90;;
19944;SDS011;10134;50.952;6.930;2022-07-23T09:26:32;14.90;;;11.73;;
19944;SDS011;10134;50.952;6.930;2022-07-23T09:31:34;17.25;;;11.98;;
19944;SDS011;10134;50.952;6.930;2022-07-23T09:36:42;15.98;;;12.85;;
19944;SDS011;10134;50.952;6.930;2022-07-23T09:39:10;20.52;;;14.98;;
19944;SDS011;10134;50.952;6.930;2022-07-23T09:41:45;21.35;;;14.80;;
19944;SDS011;10134;50.952;6.930;2022-07-23T09:44:15;18.42;;;14.82;;
19944;SDS011;10134;50.952;6.930;2022-07-23T09:46:48;17.73;;;13.48;;
19944;SDS011;10134;50.952;6.930;2022-07-23T09:49:18;18.20;;;13.60;;
19944;SDS011;10134;50.952;6.930;2022-07-23T09:51:51;16.10;;;12.60;;
19944;SDS011;10134;50.952;6.930;2022-07-23T09:54:41;17.95;;;13.50;;
19944;SDS011;10134;50.952;6.930;2022-07-23T09:57:11;14.38;;;11.10;;
19944;SDS011;10134;50.952;6.930;2022-07-23T09:59:42;16.30;;;12.43;;
19944;SDS011;10134;50.952;6.930;2022-07-23T10:02:11;19.63;;;12.63;;
19944;SDS011;10134;50.952;6.930;2022-07-23T10:04:56;16.92;;;12.98;;
19944;SDS011;10134;50.952;6.930;2022-07-23T10:07:41;15.43;;;11.02;;
19944;SDS011;10134;50.952;6.930;2022-07-23T10:10:31;15.00;;;11.65;;
19944;SDS011;10134;50.952;6.930;2022-07-23T10:13:27;12.60;;;10.85;;
19944;SDS011;10134;50.952;6.930;2022-07-23T10:16:14;11.65;;;9.45;;
19944;SDS011;10134;50.952;6.930;2022-07-23T10:18:52;13.05;;;9.40;;
19944;SDS011;10134;50.952;6.930;2022-07-23T10:21:42;12.32;;;8.48;;
19944;SDS011;10134;50.952;6.930;2022-07-23T10:33:03;10.13;;;7.65;;
19944;SDS011;10134;50.952;6.930;2022-07-23T10:41:14;10.10;;;8.23;;
19944;SDS011;10134;50.952;6.930;2022-07-23T10:44:05;12.98;;;8.10;;
19944;SDS011;10134;50.952;6.930;2022-07-23T10:46:34;8.77;;;6.60;;
19944;SDS011;10134;50.952;6.930;2022-07-23T10:54:42;7.60;;;6.20;;
19944;SDS011;10134;50.952;6.930;2022-07-23T10:57:10;8.77;;;6.22;;
19944;SDS011;10134;50.952;6.930;2022-07-23T11:02:29;10.38;;;5.97;;
19944;SDS011;10134;50.952;6.930;2022-07-23T11:05:01;9.52;;;7.47;;
19944;SDS011;10134;50.952;6.930;2022-07-23T11:07:28;10.68;;;7.28;;
19944;SDS011;10134;50.952;6.930;2022-07-23T11:09:56;22.02;;;8.50;;
19944;SDS011;10134;50.952;6.930;2022-07-23T11:17:27;10.05;;;6.30;;
19944;SDS011;10134;50.952;6.930;2022-07-23T11:25:12;7.35;;;5.75;;
19944;SDS011;10134;50.952;6.930;2022-07-23T11:27:44;8.98;;;5.53;;
19944;SDS011;10134;50.952;6.930;2022-07-23T11:35:35;7.30;;;5.10;;
19944;SDS011;10134;50.952;6.930;2022-07-23T11:38:05;6.57;;;5.88;;
19944;SDS011;10134;50.952;6.930;2022-07-23T11:40:44;9.10;;;5.70;;
19944;SDS011;10134;50.952;6.930;2022-07-23T11:43:12;8.18;;;5.68;;
19944;SDS011;10134;50.952;6.930;2022-07-23T11:45:44;6.78;;;5.80;;
19944;SDS011;10134;50.952;6.930;2022-07-23T11:48:20;7.65;;;6.18;;
19944;SDS011;10134;50.952;6.930;2022-07-23T11:50:53;9.48;;;5.90;;
19944;SDS011;10134;50.952;6.930;2022-07-23T11:53:25;8.27;;;6.15;;
19944;SDS011;10134;50.952;6.930;2022-07-23T11:56:08;7.55;;;6.03;;
19944;SDS011;10134;50.952;6.930;2022-07-23T11:58:37;8.25;;;6.70;;
19944;SDS011;10134;50.952;6.930;2022-07-23T12:01:05;8.63;;;6.72;;
19944;SDS011;10134;50.952;6.930;2022-07-23T12:03:49;6.78;;;5.95;;
19944;SDS011;10134;50.952;6.930;2022-07-23T12:06:18;7.20;;;5.90;;
19944;SDS011;10134;50.952;6.930;2022-07-23T12:08:45;7.35;;;5.90;;
19944;SDS011;10134;50.952;6.930;2022-07-23T12:11:12;7.20;;;5.95;;
19944;SDS011;10134;50.952;6.930;2022-07-23T12:13:40;6.40;;;5.22;;
19944;SDS011;10134;50.952;6.930;2022-07-23T12:16:07;5.32;;;4.55;;
19944;SDS011;10134;50.952;6.930;2022-07-23T12:18:35;5.50;;;4.95;;
19944;SDS011;10134;50.952;6.930;2022-07-23T12:21:04;8.93;;;5.95;;
19944;SDS011;10134;50.952;6.930;2022-07-23T12:23:33;7.70;;;5.50;;
19944;SDS011;10134;50.952;6.930;2022-07-23T12:26:03;7.07;;;5.03;;
19944;SDS011;10134;50.952;6.930;2022-07-23T12:28:31;6.15;;;3.47;;
19944;SDS011;10134;50.952;6.930;2022-07-23T12:31:00;5.22;;;3.88;;
19944;SDS011;10134;50.952;6.930;2022-07-23T12:33:35;4.38;;;3.97;;
19944;SDS011;10134;50.952;6.930;2022-07-23T12:36:08;5.82;;;4.13;;
19944;SDS011;10134;50.952;6.930;2022-07-23T12:38:41;5.72;;;3.90;;
19944;SDS011;10134;50.952;6.930;2022-07-23T12:41:10;7.10;;;4.13;;
19944;SDS011;10134;50.952;6.930;2022-07-23T12:43:39;5.68;;;3.85;;
19944;SDS011;10134;50.952;6.930;2022-07-23T12:46:11;4.40;;;3.53;;
19944;SDS011;10134;50.952;6.930;2022-07-23T12:51:27;3.70;;;2.70;;
19944;SDS011;10134;50.952;6.930;2022-07-23T12:53:58;6.15;;;3.63;;
19944;SDS011;10134;50.952;6.930;2022-07-23T12:56:34;8.38;;;3.40;;
19944;SDS011;10134;50.952;6.930;2022-07-23T13:01:43;4.07;;;3.10;;
19944;SDS011;10134;50.952;6.930;2022-07-23T13:04:20;5.38;;;2.90;;
19944;SDS011;10134;50.952;6.930;2022-07-23T13:06:50;5.25;;;3.53;;
19944;SDS011;10134;50.952;6.930;2022-07-23T13:09:23;3.85;;;3.05;;
19944;SDS011;10134;50.952;6.930;2022-07-23T13:11:52;5.80;;;3.33;;
19944;SDS011;10134;50.952;6.930;2022-07-23T13:14:23;4.40;;;3.20;;
19944;SDS011;10134;50.952;6.930;2022-07-23T13:16:53;4.65;;;3.22;;
19944;SDS011;10134;50.952;6.930;2022-07-23T13:19:23;3.20;;;2.55;;
19944;SDS011;10134;50.952;6.930;2022-07-23T13:21:52;4.28;;;2.78;;
19944;SDS011;10134;50.952;6.930;2022-07-23T13:24:20;4.97;;;2.65;;
19944;SDS011;10134;50.952;6.930;2022-07-23T13:26:47;3.15;;;2.38;;
19944;SDS011;10134;50.952;6.930;2022-07-23T13:29:17;4.03;;;2.53;;
19944;SDS011;10134;50.952;6.930;2022-07-23T13:31:46;5.07;;;2.40;;
19944;SDS011;10134;50.952;6.930;2022-07-23T13:34:15;2.30;;;1.95;;
19944;SDS011;10134;50.952;6.930;2022-07-23T13:36:43;3.80;;;2.10;;
19944;SDS011;10134;50.952;6.930;2022-07-23T13:39:10;5.90;;;2.45;;
19944;SDS011;10134;50.952;6.930;2022-07-23T13:41:37;4.60;;;2.67;;
19944;SDS011;10134;50.952;6.930;2022-07-23T13:44:05;3.05;;;2.33;;
19944;SDS011;10134;50.952;6.930;2022-07-23T13:46:33;3.15;;;2.70;;
19944;SDS011;10134;50.952;6.930;2022-07-23T13:49:02;2.55;;;2.00;;
19944;SDS011;10134;50.952;6.930;2022-07-23T13:51:32;2.63;;;2.10;;
19944;SDS011;10134;50.952;6.930;2022-07-23T13:54:00;3.72;;;2.05;;
19944;SDS011;10134;50.952;6.930;2022-07-23T13:56:29;4.95;;;2.47;;
19944;SDS011;10134;50.952;6.930;2022-07-23T13:58:56;3.83;;;2.10;;
19944;SDS011;10134;50.952;6.930;2022-07-23T14:01:23;2.47;;;2.28;;
19944;SDS011;10134;50.952;6.930;2022-07-23T14:03:51;3.70;;;2.50;;
19944;SDS011;10134;50.952;6.930;2022-07-23T14:06:19;3.25;;;2.25;;
19944;SDS011;10134;50.952;6.930;2022-07-23T14:08:59;2.80;;;2.22;;
19944;SDS011;10134;50.952;6.930;2022-07-23T14:11:27;4.00;;;2.47;;
19944;SDS011;10134;50.952;6.930;2022-07-23T14:13:55;7.55;;;2.90;;
19944;SDS011;10134;50.952;6.930;2022-07-23T14:16:22;3.42;;;2.47;;
19944;SDS011;10134;50.952;6.930;2022-07-23T14:18:50;2.65;;;2.22;;
19944;SDS011;10134;50.952;6.930;2022-07-23T14:21:17;3.63;;;2.55;;
19944;SDS011;10134;50.952;6.930;2022-07-23T14:23:44;2.17;;;1.98;;
19944;SDS011;10134;50.952;6.930;2022-07-23T14:26:12;6.45;;;2.47;;
19944;SDS011;10134;50.952;6.930;2022-07-23T14:28:41;3.53;;;2.55;;
19944;SDS011;10134;50.952;6.930;2022-07-23T14:31:08;2.30;;;2.10;;
19944;SDS011;10134;50.952;6.930;2022-07-23T14:33:47;3.42;;;2.40;;
19944;SDS011;10134;50.952;6.930;2022-07-23T14:36:15;2.80;;;2.40;;
19944;SDS011;10134;50.952;6.930;2022-07-23T14:38:42;3.55;;;2.35;;
19944;SDS011;10134;50.952;6.930;2022-07-23T14:41:10;3.10;;;1.98;;
19944;SDS011;10134;50.952;6.930;2022-07-23T14:43:37;2.92;;;2.30;;
19944;SDS011;10134;50.952;6.930;2022-07-23T14:46:04;4.30;;;2.38;;
19944;SDS011;10134;50.952;6.930;2022-07-23T14:48:32;5.93;;;2.15;;
19944;SDS011;10134;50.952;6.930;2022-07-23T14:50:59;6.68;;;2.83;;
19944;SDS011;10134;50.952;6.930;2022-07-23T14:53:28;3.30;;;2.58;;
19944;SDS011;10134;50.952;6.930;2022-07-23T14:55:56;3.30;;;2.67;;
19944;SDS011;10134;50.952;6.930;2022-07-23T14:58:24;2.90;;;2.58;;
19944;SDS011;10134;50.952;6.930;2022-07-23T15:00:51;2.92;;;2.10;;
19944;SDS011;10134;50.952;6.930;2022-07-23T15:03:19;4.00;;;2.03;;
19944;SDS011;10134;50.952;6.930;2022-07-23T15:05:47;3.25;;;2.20;;
19944;SDS011;10134;50.952;6.930;2022-07-23T15:08:14;3.13;;;2.28;;
19944;SDS011;10134;50.952;6.930;2022-07-23T15:10:48;2.50;;;2.22;;
19944;SDS011;10134;50.952;6.930;2022-07-23T15:13:16;3.15;;;1.83;;
19944;SDS011;10134;50.952;6.930;2022-07-23T15:15:44;3.50;;;2.00;;
19944;SDS011;10134;50.952;6.930;2022-07-23T15:18:17;2.17;;;1.98;;
19944;SDS011;10134;50.952;6.930;2022-07-23T15:20:44;3.28;;;2.17;;
19944;SDS011;10134;50.952;6.930;2022-07-23T15:23:14;3.60;;;2.28;;
19944;SDS011;10134;50.952;6.930;2022-07-23T15:25:41;2.58;;;2.03;;
19944;SDS011;10134;50.952;6.930;2022-07-23T15:28:16;2.80;;;2.53;;
19944;SDS011;10134;50.952;6.930;2022-07-23T15:31:03;6.10;;;4.53;;
19944;SDS011;10134;50.952;6.930;2022-07-23T15:33:34;2.67;;;2.33;;
19944;SDS011;10134;50.952;6.930;2022-07-23T15:36:02;4.20;;;2.17;;